sensor_id;sensor_type;location;lat;lon;timestamp;P1;durP1;ratioP1;P2;durP2;ratioP2
45198;SDS011;30941;46.422;18.772;2022-12-18T00:00:39;40.90;;;18.40;;
45198;SDS011;30941;46.422;18.772;2022-12-18T00:03:09;40.10;;;18.50;;
45198;SDS011;30941;46.422;18.772;2022-12-18T00:05:35;38.13;;;18.10;;
45198;SDS011;30941;46.422;18.772;2022-12-18T00:08:00;40.53;;;19.67;;
45198;SDS011;30941;46.422;18.772;2022-12-18T00:10:27;40.90;;;18.30;;
45198;SDS011;30941;46.422;18.772;2022-12-18T00:12:52;40.33;;;18.87;;
45198;SDS011;30941;46.422;18.772;2022-12-18T00:15:18;44.90;;;19.77;;
45198;SDS011;30941;46.422;18.772;2022-12-18T00:17:43;43.13;;;20.40;;
45198;SDS011;30941;46.422;18.772;2022-12-18T00:20:09;48.93;;;20.43;;
45198;SDS011;30941;46.422;18.772;2022-12-18T00:22:35;42.10;;;18.63;;
45198;SDS011;30941;46.422;18.772;2022-12-18T00:25:00;43.47;;;18.27;;
45198;SDS011;30941;46.422;18.772;2022-12-18T00:27:25;41.43;;;17.97;;
45198;SDS011;30941;46.422;18.772;2022-12-18T00:29:51;46.80;;;19.40;;
45198;SDS011;30941;46.422;18.772;2022-12-18T00:32:16;41.67;;;18.27;;
45198;SDS011;30941;46.422;18.772;2022-12-18T00:34:41;45.77;;;18.57;;
45198;SDS011;30941;46.422;18.772;2022-12-18T00:37:07;39.47;;;18.87;;
45198;SDS011;30941;46.422;18.772;2022-12-18T00:39:32;41.70;;;18.63;;
45198;SDS011;30941;46.422;18.772;2022-12-18T00:41:58;41.87;;;19.27;;
45198;SDS011;30941;46.422;18.772;2022-12-18T00:47:07;39.87;;;17.20;;
45198;SDS011;30941;46.422;18.772;2022-12-18T00:49:32;40.63;;;18.90;;
45198;SDS011;30941;46.422;18.772;2022-12-18T00:51:57;45.40;;;19.47;;
45198;SDS011;30941;46.422;18.772;2022-12-18T00:54:23;47.67;;;21.50;;
45198;SDS011;30941;46.422;18.772;2022-12-18T00:56:48;44.67;;;17.83;;
45198;SDS011;30941;46.422;18.772;2022-12-18T00:59:14;41.33;;;18.97;;
45198;SDS011;30941;46.422;18.772;2022-12-18T01:01:39;42.63;;;19.90;;
45198;SDS011;30941;46.422;18.772;2022-12-18T01:04:05;44.20;;;19.10;;
45198;SDS011;30941;46.422;18.772;2022-12-18T01:06:30;44.00;;;19.67;;
45198;SDS011;30941;46.422;18.772;2022-12-18T01:08:56;45.60;;;18.93;;
45198;SDS011;30941;46.422;18.772;2022-12-18T01:11:21;52.10;;;21.33;;
45198;SDS011;30941;46.422;18.772;2022-12-18T01:13:47;40.43;;;19.13;;
45198;SDS011;30941;46.422;18.772;2022-12-18T01:16:13;42.00;;;18.87;;
45198;SDS011;30941;46.422;18.772;2022-12-18T01:18:39;43.00;;;19.63;;
45198;SDS011;30941;46.422;18.772;2022-12-18T01:21:05;44.20;;;20.20;;
45198;SDS011;30941;46.422;18.772;2022-12-18T01:23:32;44.00;;;18.73;;
45198;SDS011;30941;46.422;18.772;2022-12-18T01:25:57;47.07;;;19.20;;
45198;SDS011;30941;46.422;18.772;2022-12-18T01:28:23;50.40;;;20.93;;
45198;SDS011;30941;46.422;18.772;2022-12-18T01:30:48;43.60;;;18.57;;
45198;SDS011;30941;46.422;18.772;2022-12-18T01:33:13;47.20;;;20.13;;
45198;SDS011;30941;46.422;18.772;2022-12-18T01:35:42;45.63;;;19.87;;
45198;SDS011;30941;46.422;18.772;2022-12-18T01:38:07;45.53;;;19.13;;
45198;SDS011;30941;46.422;18.772;2022-12-18T01:40:33;47.30;;;21.33;;
45198;SDS011;30941;46.422;18.772;2022-12-18T01:42:58;39.00;;;18.43;;
45198;SDS011;30941;46.422;18.772;2022-12-18T01:45:25;47.33;;;19.93;;
45198;SDS011;30941;46.422;18.772;2022-12-18T01:47:59;46.23;;;18.63;;
45198;SDS011;30941;46.422;18.772;2022-12-18T01:50:36;45.93;;;18.87;;
45198;SDS011;30941;46.422;18.772;2022-12-18T01:55:55;47.15;;;20.10;;
45198;SDS011;30941;46.422;18.772;2022-12-18T02:00:48;41.83;;;16.83;;
45198;SDS011;30941;46.422;18.772;2022-12-18T02:03:14;42.77;;;18.37;;
45198;SDS011;30941;46.422;18.772;2022-12-18T02:08:32;39.13;;;18.33;;
45198;SDS011;30941;46.422;18.772;2022-12-18T02:11:09;47.87;;;19.37;;
45198;SDS011;30941;46.422;18.772;2022-12-18T02:14:10;45.93;;;20.90;;
45198;SDS011;30941;46.422;18.772;2022-12-18T02:27:30;46.43;;;21.27;;
45198;SDS011;30941;46.422;18.772;2022-12-18T02:29:57;45.30;;;19.73;;
45198;SDS011;30941;46.422;18.772;2022-12-18T02:32:28;50.67;;;21.07;;
45198;SDS011;30941;46.422;18.772;2022-12-18T02:34:56;43.93;;;20.10;;
45198;SDS011;30941;46.422;18.772;2022-12-18T02:37:23;45.37;;;20.17;;
45198;SDS011;30941;46.422;18.772;2022-12-18T02:39:51;47.30;;;19.93;;
45198;SDS011;30941;46.422;18.772;2022-12-18T02:42:18;46.87;;;20.87;;
45198;SDS011;30941;46.422;18.772;2022-12-18T02:44:44;48.50;;;20.60;;
45198;SDS011;30941;46.422;18.772;2022-12-18T02:47:11;45.73;;;20.90;;
45198;SDS011;30941;46.422;18.772;2022-12-18T03:00:44;46.10;;;20.03;;
45198;SDS011;30941;46.422;18.772;2022-12-18T03:03:20;53.08;;;22.05;;
45198;SDS011;30941;46.422;18.772;2022-12-18T03:05:50;51.93;;;21.53;;
45198;SDS011;30941;46.422;18.772;2022-12-18T03:08:20;51.53;;;22.03;;
45198;SDS011;30941;46.422;18.772;2022-12-18T03:11:09;56.17;;;24.37;;
45198;SDS011;30941;46.422;18.772;2022-12-18T03:13:39;46.77;;;20.93;;
45198;SDS011;30941;46.422;18.772;2022-12-18T03:16:09;47.47;;;22.00;;
45198;SDS011;30941;46.422;18.772;2022-12-18T03:18:45;49.80;;;21.40;;
45198;SDS011;30941;46.422;18.772;2022-12-18T03:21:12;52.50;;;22.90;;
45198;SDS011;30941;46.422;18.772;2022-12-18T03:23:45;47.03;;;21.33;;
45198;SDS011;30941;46.422;18.772;2022-12-18T03:26:15;54.63;;;23.87;;
45198;SDS011;30941;46.422;18.772;2022-12-18T03:28:43;49.50;;;22.30;;
45198;SDS011;30941;46.422;18.772;2022-12-18T03:31:11;49.27;;;22.17;;
45198;SDS011;30941;46.422;18.772;2022-12-18T03:33:39;54.63;;;22.70;;
45198;SDS011;30941;46.422;18.772;2022-12-18T03:36:08;50.93;;;23.50;;
45198;SDS011;30941;46.422;18.772;2022-12-18T03:38:34;52.47;;;22.13;;
45198;SDS011;30941;46.422;18.772;2022-12-18T03:41:02;52.07;;;22.97;;
45198;SDS011;30941;46.422;18.772;2022-12-18T03:49:34;45.07;;;21.83;;
45198;SDS011;30941;46.422;18.772;2022-12-18T03:52:08;54.60;;;23.73;;
45198;SDS011;30941;46.422;18.772;2022-12-18T03:54:35;61.40;;;25.33;;
45198;SDS011;30941;46.422;18.772;2022-12-18T03:57:06;54.60;;;24.17;;
45198;SDS011;30941;46.422;18.772;2022-12-18T03:59:35;52.45;;;23.67;;
45198;SDS011;30941;46.422;18.772;2022-12-18T04:02:01;48.73;;;21.90;;
45198;SDS011;30941;46.422;18.772;2022-12-18T04:04:28;55.10;;;22.60;;
45198;SDS011;30941;46.422;18.772;2022-12-18T04:06:54;55.87;;;23.47;;
45198;SDS011;30941;46.422;18.772;2022-12-18T04:09:20;58.20;;;23.60;;
45198;SDS011;30941;46.422;18.772;2022-12-18T04:11:46;54.30;;;23.07;;
45198;SDS011;30941;46.422;18.772;2022-12-18T04:14:12;49.30;;;21.47;;
45198;SDS011;30941;46.422;18.772;2022-12-18T04:16:37;47.07;;;20.87;;
45198;SDS011;30941;46.422;18.772;2022-12-18T04:19:03;51.20;;;22.97;;
45198;SDS011;30941;46.422;18.772;2022-12-18T04:21:28;51.40;;;22.03;;
45198;SDS011;30941;46.422;18.772;2022-12-18T04:23:54;48.53;;;22.37;;
45198;SDS011;30941;46.422;18.772;2022-12-18T04:26:19;46.17;;;21.50;;
45198;SDS011;30941;46.422;18.772;2022-12-18T04:28:45;50.10;;;22.73;;
45198;SDS011;30941;46.422;18.772;2022-12-18T04:31:10;53.20;;;22.77;;
45198;SDS011;30941;46.422;18.772;2022-12-18T04:33:36;47.67;;;22.03;;
45198;SDS011;30941;46.422;18.772;2022-12-18T04:36:01;51.60;;;23.23;;
45198;SDS011;30941;46.422;18.772;2022-12-18T04:38:27;50.40;;;24.67;;
45198;SDS011;30941;46.422;18.772;2022-12-18T04:40:52;53.03;;;24.57;;
45198;SDS011;30941;46.422;18.772;2022-12-18T04:43:17;52.77;;;22.70;;
45198;SDS011;30941;46.422;18.772;2022-12-18T04:45:43;49.93;;;22.53;;
45198;SDS011;30941;46.422;18.772;2022-12-18T04:48:08;52.93;;;23.80;;
45198;SDS011;30941;46.422;18.772;2022-12-18T04:50:34;49.93;;;22.77;;
45198;SDS011;30941;46.422;18.772;2022-12-18T04:52:59;54.73;;;23.37;;
45198;SDS011;30941;46.422;18.772;2022-12-18T04:55:25;51.80;;;22.53;;
45198;SDS011;30941;46.422;18.772;2022-12-18T04:57:50;50.80;;;23.17;;
45198;SDS011;30941;46.422;18.772;2022-12-18T05:00:16;47.83;;;22.63;;
45198;SDS011;30941;46.422;18.772;2022-12-18T05:02:41;52.83;;;23.80;;
45198;SDS011;30941;46.422;18.772;2022-12-18T05:05:07;52.67;;;21.40;;
45198;SDS011;30941;46.422;18.772;2022-12-18T05:07:32;59.87;;;24.80;;
45198;SDS011;30941;46.422;18.772;2022-12-18T05:09:58;54.47;;;24.07;;
45198;SDS011;30941;46.422;18.772;2022-12-18T05:12:23;60.70;;;25.50;;
45198;SDS011;30941;46.422;18.772;2022-12-18T05:14:49;60.17;;;24.40;;
45198;SDS011;30941;46.422;18.772;2022-12-18T05:17:14;53.97;;;24.43;;
45198;SDS011;30941;46.422;18.772;2022-12-18T05:19:39;54.37;;;24.33;;
45198;SDS011;30941;46.422;18.772;2022-12-18T05:22:05;51.57;;;22.93;;
45198;SDS011;30941;46.422;18.772;2022-12-18T05:24:30;58.13;;;24.00;;
45198;SDS011;30941;46.422;18.772;2022-12-18T05:26:55;49.23;;;21.97;;
45198;SDS011;30941;46.422;18.772;2022-12-18T05:29:21;53.87;;;23.80;;
45198;SDS011;30941;46.422;18.772;2022-12-18T05:31:46;62.67;;;25.40;;
45198;SDS011;30941;46.422;18.772;2022-12-18T05:34:12;58.07;;;24.83;;
45198;SDS011;30941;46.422;18.772;2022-12-18T05:36:37;60.27;;;26.07;;
45198;SDS011;30941;46.422;18.772;2022-12-18T05:39:02;58.27;;;24.47;;
45198;SDS011;30941;46.422;18.772;2022-12-18T05:41:29;57.20;;;24.87;;
45198;SDS011;30941;46.422;18.772;2022-12-18T05:43:54;60.20;;;25.20;;
45198;SDS011;30941;46.422;18.772;2022-12-18T05:46:20;60.70;;;26.37;;
45198;SDS011;30941;46.422;18.772;2022-12-18T05:48:45;57.87;;;27.10;;
45198;SDS011;30941;46.422;18.772;2022-12-18T05:51:15;59.20;;;24.80;;
45198;SDS011;30941;46.422;18.772;2022-12-18T05:53:41;63.87;;;26.63;;
45198;SDS011;30941;46.422;18.772;2022-12-18T05:56:08;56.60;;;25.63;;
45198;SDS011;30941;46.422;18.772;2022-12-18T05:58:35;57.50;;;26.30;;
45198;SDS011;30941;46.422;18.772;2022-12-18T06:01:13;59.23;;;26.83;;
45198;SDS011;30941;46.422;18.772;2022-12-18T06:03:40;59.83;;;26.73;;
45198;SDS011;30941;46.422;18.772;2022-12-18T06:06:12;67.27;;;25.67;;
45198;SDS011;30941;46.422;18.772;2022-12-18T06:08:39;56.33;;;24.40;;
45198;SDS011;30941;46.422;18.772;2022-12-18T06:11:04;63.40;;;25.37;;
45198;SDS011;30941;46.422;18.772;2022-12-18T06:13:29;59.20;;;27.60;;
45198;SDS011;30941;46.422;18.772;2022-12-18T06:15:55;63.37;;;26.77;;
45198;SDS011;30941;46.422;18.772;2022-12-18T06:18:20;65.97;;;30.20;;
45198;SDS011;30941;46.422;18.772;2022-12-18T06:20:53;69.87;;;32.10;;
45198;SDS011;30941;46.422;18.772;2022-12-18T06:23:19;77.33;;;31.77;;
45198;SDS011;30941;46.422;18.772;2022-12-18T06:25:45;62.17;;;27.17;;
45198;SDS011;30941;46.422;18.772;2022-12-18T06:28:10;59.17;;;26.77;;
45198;SDS011;30941;46.422;18.772;2022-12-18T06:30:35;76.13;;;30.43;;
45198;SDS011;30941;46.422;18.772;2022-12-18T06:33:01;61.07;;;28.53;;
45198;SDS011;30941;46.422;18.772;2022-12-18T06:35:26;62.50;;;28.07;;
45198;SDS011;30941;46.422;18.772;2022-12-18T06:37:52;66.93;;;30.63;;
45198;SDS011;30941;46.422;18.772;2022-12-18T06:40:17;60.60;;;25.90;;
45198;SDS011;30941;46.422;18.772;2022-12-18T06:42:42;63.17;;;28.77;;
45198;SDS011;30941;46.422;18.772;2022-12-18T06:45:08;64.37;;;28.70;;
45198;SDS011;30941;46.422;18.772;2022-12-18T06:47:33;56.13;;;27.97;;
45198;SDS011;30941;46.422;18.772;2022-12-18T06:49:59;62.73;;;30.10;;
45198;SDS011;30941;46.422;18.772;2022-12-18T06:52:24;80.63;;;35.50;;
45198;SDS011;30941;46.422;18.772;2022-12-18T06:54:49;89.77;;;39.63;;
45198;SDS011;30941;46.422;18.772;2022-12-18T06:57:15;82.47;;;36.07;;
45198;SDS011;30941;46.422;18.772;2022-12-18T06:59:40;76.57;;;33.63;;
45198;SDS011;30941;46.422;18.772;2022-12-18T07:02:05;77.47;;;34.10;;
45198;SDS011;30941;46.422;18.772;2022-12-18T07:04:31;82.27;;;37.93;;
45198;SDS011;30941;46.422;18.772;2022-12-18T07:06:57;90.10;;;40.77;;
45198;SDS011;30941;46.422;18.772;2022-12-18T07:09:22;85.90;;;40.80;;
45198;SDS011;30941;46.422;18.772;2022-12-18T07:11:48;72.00;;;32.80;;
45198;SDS011;30941;46.422;18.772;2022-12-18T07:14:13;77.73;;;34.50;;
45198;SDS011;30941;46.422;18.772;2022-12-18T07:16:39;77.07;;;33.30;;
45198;SDS011;30941;46.422;18.772;2022-12-18T07:19:05;72.27;;;33.03;;
45198;SDS011;30941;46.422;18.772;2022-12-18T07:21:31;74.67;;;32.47;;
45198;SDS011;30941;46.422;18.772;2022-12-18T07:23:56;72.53;;;34.17;;
45198;SDS011;30941;46.422;18.772;2022-12-18T07:26:21;81.13;;;37.10;;
45198;SDS011;30941;46.422;18.772;2022-12-18T07:28:47;82.63;;;36.97;;
45198;SDS011;30941;46.422;18.772;2022-12-18T07:31:15;69.50;;;32.00;;
45198;SDS011;30941;46.422;18.772;2022-12-18T07:33:43;67.83;;;31.53;;
45198;SDS011;30941;46.422;18.772;2022-12-18T07:36:08;73.50;;;34.73;;
45198;SDS011;30941;46.422;18.772;2022-12-18T07:38:35;79.13;;;34.27;;
45198;SDS011;30941;46.422;18.772;2022-12-18T07:41:01;66.97;;;30.90;;
45198;SDS011;30941;46.422;18.772;2022-12-18T07:43:27;66.40;;;30.83;;
45198;SDS011;30941;46.422;18.772;2022-12-18T07:45:52;76.67;;;34.07;;
45198;SDS011;30941;46.422;18.772;2022-12-18T07:48:17;71.63;;;34.07;;
45198;SDS011;30941;46.422;18.772;2022-12-18T07:50:43;76.67;;;35.53;;
45198;SDS011;30941;46.422;18.772;2022-12-18T07:53:08;70.80;;;32.53;;
45198;SDS011;30941;46.422;18.772;2022-12-18T07:55:34;71.33;;;31.07;;
45198;SDS011;30941;46.422;18.772;2022-12-18T07:58:03;68.60;;;31.07;;
45198;SDS011;30941;46.422;18.772;2022-12-18T08:00:29;65.30;;;30.07;;
45198;SDS011;30941;46.422;18.772;2022-12-18T08:02:55;74.63;;;31.30;;
45198;SDS011;30941;46.422;18.772;2022-12-18T08:05:21;76.57;;;32.00;;
45198;SDS011;30941;46.422;18.772;2022-12-18T08:07:47;68.10;;;31.23;;
45198;SDS011;30941;46.422;18.772;2022-12-18T08:10:12;67.07;;;31.10;;
45198;SDS011;30941;46.422;18.772;2022-12-18T08:12:38;58.87;;;26.80;;
45198;SDS011;30941;46.422;18.772;2022-12-18T08:15:03;56.50;;;24.90;;
45198;SDS011;30941;46.422;18.772;2022-12-18T08:17:29;57.97;;;28.10;;
45198;SDS011;30941;46.422;18.772;2022-12-18T08:19:54;60.10;;;27.00;;
45198;SDS011;30941;46.422;18.772;2022-12-18T08:22:20;59.70;;;26.70;;
45198;SDS011;30941;46.422;18.772;2022-12-18T08:24:45;59.10;;;25.67;;
45198;SDS011;30941;46.422;18.772;2022-12-18T08:27:10;63.73;;;26.67;;
45198;SDS011;30941;46.422;18.772;2022-12-18T08:29:36;66.63;;;27.63;;
45198;SDS011;30941;46.422;18.772;2022-12-18T08:32:01;61.17;;;26.90;;
45198;SDS011;30941;46.422;18.772;2022-12-18T08:34:26;58.30;;;26.17;;
45198;SDS011;30941;46.422;18.772;2022-12-18T08:36:52;60.77;;;28.03;;
45198;SDS011;30941;46.422;18.772;2022-12-18T08:39:17;62.77;;;27.87;;
45198;SDS011;30941;46.422;18.772;2022-12-18T08:41:43;58.17;;;28.67;;
45198;SDS011;30941;46.422;18.772;2022-12-18T08:44:28;67.17;;;30.27;;
45198;SDS011;30941;46.422;18.772;2022-12-18T08:47:02;68.00;;;29.47;;
45198;SDS011;30941;46.422;18.772;2022-12-18T08:49:28;59.30;;;27.63;;
45198;SDS011;30941;46.422;18.772;2022-12-18T08:51:54;62.80;;;27.90;;
45198;SDS011;30941;46.422;18.772;2022-12-18T08:54:20;63.78;;;27.63;;
45198;SDS011;30941;46.422;18.772;2022-12-18T08:56:45;67.03;;;28.15;;
45198;SDS011;30941;46.422;18.772;2022-12-18T08:59:11;61.30;;;28.03;;
45198;SDS011;30941;46.422;18.772;2022-12-18T09:01:36;66.65;;;29.13;;
45198;SDS011;30941;46.422;18.772;2022-12-18T09:04:01;59.25;;;28.20;;
45198;SDS011;30941;46.422;18.772;2022-12-18T09:06:27;65.57;;;28.67;;
45198;SDS011;30941;46.422;18.772;2022-12-18T09:08:52;111.93;;;42.90;;
45198;SDS011;30941;46.422;18.772;2022-12-18T09:11:24;80.35;;;35.78;;
45198;SDS011;30941;46.422;18.772;2022-12-18T09:13:51;68.15;;;32.40;;
45198;SDS011;30941;46.422;18.772;2022-12-18T09:16:17;67.20;;;31.27;;
45198;SDS011;30941;46.422;18.772;2022-12-18T09:18:43;60.17;;;28.33;;
45198;SDS011;30941;46.422;18.772;2022-12-18T09:21:18;82.60;;;39.38;;
45198;SDS011;30941;46.422;18.772;2022-12-18T09:23:51;59.45;;;27.30;;
45198;SDS011;30941;46.422;18.772;2022-12-18T09:26:17;59.33;;;27.33;;
45198;SDS011;30941;46.422;18.772;2022-12-18T09:28:43;68.65;;;30.98;;
45198;SDS011;30941;46.422;18.772;2022-12-18T09:31:10;83.15;;;35.55;;
45198;SDS011;30941;46.422;18.772;2022-12-18T09:33:36;69.53;;;32.50;;
45198;SDS011;30941;46.422;18.772;2022-12-18T09:36:03;66.43;;;31.67;;
45198;SDS011;30941;46.422;18.772;2022-12-18T09:38:29;90.45;;;39.05;;
45198;SDS011;30941;46.422;18.772;2022-12-18T09:44:32;64.85;;;32.92;;
45198;SDS011;30941;46.422;18.772;2022-12-18T09:49:29;62.58;;;29.48;;
45198;SDS011;30941;46.422;18.772;2022-12-18T09:54:24;58.33;;;31.35;;
45198;SDS011;30941;46.422;18.772;2022-12-18T09:56:51;62.38;;;30.75;;
45198;SDS011;30941;46.422;18.772;2022-12-18T10:01:48;49.40;;;24.23;;
45198;SDS011;30941;46.422;18.772;2022-12-18T10:04:13;55.95;;;27.15;;
45198;SDS011;30941;46.422;18.772;2022-12-18T10:09:33;58.42;;;28.05;;
45198;SDS011;30941;46.422;18.772;2022-12-18T10:12:12;59.45;;;27.58;;
45198;SDS011;30941;46.422;18.772;2022-12-18T10:17:37;61.45;;;28.48;;
45198;SDS011;30941;46.422;18.772;2022-12-18T10:20:16;57.80;;;29.48;;
45198;SDS011;30941;46.422;18.772;2022-12-18T10:22:57;59.25;;;28.17;;
45198;SDS011;30941;46.422;18.772;2022-12-18T10:25:26;70.63;;;33.88;;
45198;SDS011;30941;46.422;18.772;2022-12-18T10:27:54;89.80;;;49.33;;
45198;SDS011;30941;46.422;18.772;2022-12-18T10:30:22;54.53;;;28.58;;
45198;SDS011;30941;46.422;18.772;2022-12-18T10:32:49;52.58;;;30.88;;
45198;SDS011;30941;46.422;18.772;2022-12-18T10:35:24;51.08;;;27.63;;
45198;SDS011;30941;46.422;18.772;2022-12-18T10:40:28;63.22;;;35.88;;
45198;SDS011;30941;46.422;18.772;2022-12-18T10:43:03;54.85;;;27.77;;
45198;SDS011;30941;46.422;18.772;2022-12-18T10:45:30;49.95;;;25.40;;
45198;SDS011;30941;46.422;18.772;2022-12-18T10:47:55;54.03;;;28.77;;
45198;SDS011;30941;46.422;18.772;2022-12-18T10:52:54;52.45;;;26.98;;
45198;SDS011;30941;46.422;18.772;2022-12-18T10:55:38;52.83;;;26.38;;
45198;SDS011;30941;46.422;18.772;2022-12-18T11:03:33;50.45;;;28.08;;
45198;SDS011;30941;46.422;18.772;2022-12-18T11:06:04;57.33;;;29.40;;
45198;SDS011;30941;46.422;18.772;2022-12-18T11:09:18;59.65;;;31.48;;
45198;SDS011;30941;46.422;18.772;2022-12-18T11:11:53;49.03;;;26.30;;
45198;SDS011;30941;46.422;18.772;2022-12-18T11:14:25;49.90;;;25.30;;
45198;SDS011;30941;46.422;18.772;2022-12-18T11:16:52;55.50;;;32.15;;
45198;SDS011;30941;46.422;18.772;2022-12-18T11:19:28;44.28;;;24.05;;
45198;SDS011;30941;46.422;18.772;2022-12-18T11:22:03;47.15;;;23.92;;
45198;SDS011;30941;46.422;18.772;2022-12-18T11:24:49;53.05;;;26.40;;
45198;SDS011;30941;46.422;18.772;2022-12-18T11:27:18;55.10;;;27.20;;
45198;SDS011;30941;46.422;18.772;2022-12-18T11:29:44;49.22;;;26.25;;
45198;SDS011;30941;46.422;18.772;2022-12-18T11:37:52;49.08;;;23.52;;
45198;SDS011;30941;46.422;18.772;2022-12-18T11:40:25;48.90;;;23.38;;
45198;SDS011;30941;46.422;18.772;2022-12-18T11:45:49;51.40;;;25.33;;
45198;SDS011;30941;46.422;18.772;2022-12-18T11:48:57;48.90;;;24.85;;
45198;SDS011;30941;46.422;18.772;2022-12-18T11:51:32;53.33;;;27.35;;
45198;SDS011;30941;46.422;18.772;2022-12-18T11:54:00;60.22;;;28.20;;
45198;SDS011;30941;46.422;18.772;2022-12-18T11:56:30;60.67;;;27.52;;
45198;SDS011;30941;46.422;18.772;2022-12-18T12:01:50;56.33;;;27.65;;
45198;SDS011;30941;46.422;18.772;2022-12-18T12:06:56;60.97;;;29.20;;
45198;SDS011;30941;46.422;18.772;2022-12-18T12:17:27;56.75;;;26.88;;
45198;SDS011;30941;46.422;18.772;2022-12-18T12:22:45;56.40;;;26.05;;
45198;SDS011;30941;46.422;18.772;2022-12-18T12:27:49;57.72;;;26.95;;
45198;SDS011;30941;46.422;18.772;2022-12-18T12:30:40;57.30;;;26.77;;
45198;SDS011;30941;46.422;18.772;2022-12-18T12:35:52;66.88;;;30.45;;
45198;SDS011;30941;46.422;18.772;2022-12-18T12:41:00;73.20;;;36.92;;
45198;SDS011;30941;46.422;18.772;2022-12-18T12:46:06;76.22;;;38.50;;
45198;SDS011;30941;46.422;18.772;2022-12-18T12:48:43;56.22;;;26.52;;
45198;SDS011;30941;46.422;18.772;2022-12-18T12:53:40;52.65;;;25.23;;
45198;SDS011;30941;46.422;18.772;2022-12-18T12:56:06;52.70;;;24.08;;
45198;SDS011;30941;46.422;18.772;2022-12-18T12:58:41;53.85;;;26.23;;
45198;SDS011;30941;46.422;18.772;2022-12-18T13:01:32;56.88;;;26.58;;
45198;SDS011;30941;46.422;18.772;2022-12-18T13:06:56;57.10;;;27.73;;
45198;SDS011;30941;46.422;18.772;2022-12-18T13:09:30;55.75;;;24.98;;
45198;SDS011;30941;46.422;18.772;2022-12-18T13:12:01;49.97;;;23.38;;
45198;SDS011;30941;46.422;18.772;2022-12-18T13:14:46;46.40;;;24.48;;
45198;SDS011;30941;46.422;18.772;2022-12-18T13:17:16;50.95;;;25.27;;
45198;SDS011;30941;46.422;18.772;2022-12-18T13:19:50;51.22;;;25.80;;
45198;SDS011;30941;46.422;18.772;2022-12-18T13:22:21;47.30;;;23.20;;
45198;SDS011;30941;46.422;18.772;2022-12-18T13:24:47;47.58;;;22.75;;
45198;SDS011;30941;46.422;18.772;2022-12-18T13:41:23;46.00;;;21.20;;
45198;SDS011;30941;46.422;18.772;2022-12-18T13:43:49;45.00;;;21.60;;
45198;SDS011;30941;46.422;18.772;2022-12-18T13:46:29;50.78;;;21.42;;
45198;SDS011;30941;46.422;18.772;2022-12-18T13:51:50;41.22;;;20.17;;
45198;SDS011;30941;46.422;18.772;2022-12-18T13:56:45;43.42;;;21.13;;
45198;SDS011;30941;46.422;18.772;2022-12-18T13:59:16;45.72;;;21.88;;
45198;SDS011;30941;46.422;18.772;2022-12-18T14:01:59;55.70;;;25.63;;
45198;SDS011;30941;46.422;18.772;2022-12-18T14:07:07;52.13;;;22.08;;
45198;SDS011;30941;46.422;18.772;2022-12-18T14:09:39;46.28;;;22.58;;
45198;SDS011;30941;46.422;18.772;2022-12-18T14:12:06;46.97;;;23.45;;
45198;SDS011;30941;46.422;18.772;2022-12-18T14:14:55;44.30;;;22.13;;
45198;SDS011;30941;46.422;18.772;2022-12-18T14:17:20;43.28;;;21.50;;
45198;SDS011;30941;46.422;18.772;2022-12-18T14:19:48;45.17;;;20.55;;
45198;SDS011;30941;46.422;18.772;2022-12-18T14:22:15;46.83;;;21.27;;
45198;SDS011;30941;46.422;18.772;2022-12-18T14:27:51;51.47;;;23.40;;
45198;SDS011;30941;46.422;18.772;2022-12-18T14:30:35;46.92;;;21.30;;
45198;SDS011;30941;46.422;18.772;2022-12-18T14:35:34;49.38;;;22.80;;
45198;SDS011;30941;46.422;18.772;2022-12-18T14:40:45;45.35;;;23.83;;
45198;SDS011;30941;46.422;18.772;2022-12-18T14:43:11;52.38;;;25.92;;
45198;SDS011;30941;46.422;18.772;2022-12-18T14:45:38;51.80;;;25.90;;
45198;SDS011;30941;46.422;18.772;2022-12-18T14:48:09;57.08;;;27.92;;
45198;SDS011;30941;46.422;18.772;2022-12-18T14:50:57;55.85;;;27.17;;
45198;SDS011;30941;46.422;18.772;2022-12-18T14:56:12;53.97;;;27.05;;
45198;SDS011;30941;46.422;18.772;2022-12-18T14:58:44;55.65;;;26.63;;
45198;SDS011;30941;46.422;18.772;2022-12-18T15:01:24;57.33;;;28.88;;
45198;SDS011;30941;46.422;18.772;2022-12-18T15:03:52;55.90;;;26.25;;
45198;SDS011;30941;46.422;18.772;2022-12-18T15:06:37;60.90;;;29.17;;
45198;SDS011;30941;46.422;18.772;2022-12-18T15:09:26;60.63;;;29.70;;
45198;SDS011;30941;46.422;18.772;2022-12-18T15:12:00;58.47;;;28.75;;
45198;SDS011;30941;46.422;18.772;2022-12-18T15:16:56;62.42;;;27.88;;
45198;SDS011;30941;46.422;18.772;2022-12-18T15:19:26;65.28;;;30.13;;
45198;SDS011;30941;46.422;18.772;2022-12-18T15:22:04;71.55;;;30.15;;
45198;SDS011;30941;46.422;18.772;2022-12-18T15:24:31;63.90;;;29.92;;
45198;SDS011;30941;46.422;18.772;2022-12-18T15:26:57;65.30;;;31.83;;
45198;SDS011;30941;46.422;18.772;2022-12-18T15:29:24;65.47;;;30.08;;
45198;SDS011;30941;46.422;18.772;2022-12-18T15:31:58;69.18;;;30.42;;
45198;SDS011;30941;46.422;18.772;2022-12-18T15:34:26;63.25;;;30.02;;
45198;SDS011;30941;46.422;18.772;2022-12-18T15:36:52;70.32;;;30.67;;
45198;SDS011;30941;46.422;18.772;2022-12-18T15:39:18;70.72;;;31.05;;
45198;SDS011;30941;46.422;18.772;2022-12-18T15:41:44;79.72;;;34.80;;
45198;SDS011;30941;46.422;18.772;2022-12-18T15:44:29;79.80;;;34.53;;
45198;SDS011;30941;46.422;18.772;2022-12-18T15:46:55;90.20;;;40.05;;
45198;SDS011;30941;46.422;18.772;2022-12-18T15:49:22;83.03;;;37.25;;
45198;SDS011;30941;46.422;18.772;2022-12-18T15:51:51;79.28;;;36.95;;
45198;SDS011;30941;46.422;18.772;2022-12-18T15:54:18;74.70;;;35.30;;
45198;SDS011;30941;46.422;18.772;2022-12-18T15:57:04;75.40;;;35.33;;
45198;SDS011;30941;46.422;18.772;2022-12-18T15:59:48;80.50;;;35.45;;
45198;SDS011;30941;46.422;18.772;2022-12-18T16:02:16;75.13;;;35.20;;
45198;SDS011;30941;46.422;18.772;2022-12-18T16:04:43;93.80;;;38.22;;
45198;SDS011;30941;46.422;18.772;2022-12-18T16:07:10;81.25;;;36.22;;
45198;SDS011;30941;46.422;18.772;2022-12-18T16:09:37;75.28;;;34.78;;
45198;SDS011;30941;46.422;18.772;2022-12-18T16:12:04;67.38;;;31.13;;
45198;SDS011;30941;46.422;18.772;2022-12-18T16:14:30;70.95;;;31.63;;
45198;SDS011;30941;46.422;18.772;2022-12-18T16:17:00;68.40;;;32.30;;
45198;SDS011;30941;46.422;18.772;2022-12-18T16:19:27;72.63;;;31.17;;
45198;SDS011;30941;46.422;18.772;2022-12-18T16:21:54;67.90;;;28.90;;
45198;SDS011;30941;46.422;18.772;2022-12-18T16:24:29;67.82;;;28.17;;
45198;SDS011;30941;46.422;18.772;2022-12-18T16:26:56;64.80;;;27.55;;
45198;SDS011;30941;46.422;18.772;2022-12-18T16:29:24;54.72;;;26.92;;
45198;SDS011;30941;46.422;18.772;2022-12-18T16:31:56;59.38;;;27.83;;
45198;SDS011;30941;46.422;18.772;2022-12-18T16:34:24;54.88;;;26.50;;
45198;SDS011;30941;46.422;18.772;2022-12-18T16:36:56;57.88;;;28.90;;
45198;SDS011;30941;46.422;18.772;2022-12-18T16:39:24;60.88;;;29.58;;